< < Back
Terminal Aerodrome Forecast


Current Version              Previous Versions:   1  2  3  4  5  6  7  8  9  

Terminal Aerodrome Forecast

513
FTUS42 KTAE 271120
TAFTLH
TAF
KTLH 271120Z 2712/2812 VRB03KT P6SM BKN015 BKN250
     FM271300 09004KT P6SM SCT020 BKN250
     FM271700 VRB15G25KT 2SM TSRA SCT020 BKN050CB
     FM272100 11009KT P6SM VCTS SCT050CB BKN250
     FM280200 08004KT P6SM BKN250=

Latest METAR

604
SAUS80 KWBC 280600 RRA
MTRTLH
METAR KTLH 280553Z AUTO 00000KT 10SM SCT039 23/22 A3014 RMK AO2 SLP207
T02330217 10256 20233 58004


USA.gov is the U.S. government's official web portal to all federal, state and local government web resources and services.